Terminal Aerodrome Forecast
Issued by NWS

Home | Current Version | Previous Version | Graphics & Text | Print | Product List | Glossary On
Versions: 1 2 3 4 5 6 7 8 9 10 11 12 13 14 15 16 17
000
FTUS43 KMPX 310900 AAA
TAFAXN
TAF AMD
KAXN 310905Z 3109/0106 14007KT 6SM BR BKN004
     FM311000 15012KT P6SM VCSH SCT006 BKN050
      TEMPO 3110/3112 3SM -TSRA BKN006CB
     FM311300 15014G20KT P6SM SCT015 BKN100
     FM311700 18014G21KT P6SM SCT020 BKN050
     FM312200 24009KT P6SM SCT040 BKN120
     FM010400 29005KT P6SM SCT200=

USA.gov is the U.S. government's official web portal to all federal, state and local government web resources and services.